sensor_id;sensor_type;location;lat;lon;timestamp;P1;durP1;ratioP1;P2;durP2;ratioP2
57375;SDS011;44805;45.048;5.062;2022-11-24T00:01:11;42.53;;;25.90;;
57375;SDS011;44805;45.048;5.062;2022-11-24T00:03:45;40.47;;;24.35;;
57375;SDS011;44805;45.048;5.062;2022-11-24T00:06:22;44.13;;;25.10;;
57375;SDS011;44805;45.048;5.062;2022-11-24T00:08:48;42.72;;;25.00;;
57375;SDS011;44805;45.048;5.062;2022-11-24T00:11:17;38.83;;;22.63;;
57375;SDS011;44805;45.048;5.062;2022-11-24T00:13:47;38.92;;;23.50;;
57375;SDS011;44805;45.048;5.062;2022-11-24T00:16:16;37.88;;;22.60;;
57375;SDS011;44805;45.048;5.062;2022-11-24T00:18:43;40.33;;;22.23;;
57375;SDS011;44805;45.048;5.062;2022-11-24T00:21:13;38.47;;;22.70;;
57375;SDS011;44805;45.048;5.062;2022-11-24T00:23:40;44.35;;;27.38;;
57375;SDS011;44805;45.048;5.062;2022-11-24T00:26:16;41.97;;;26.27;;
57375;SDS011;44805;45.048;5.062;2022-11-24T00:28:50;44.53;;;28.05;;
57375;SDS011;44805;45.048;5.062;2022-11-24T00:31:18;43.92;;;25.55;;
57375;SDS011;44805;45.048;5.062;2022-11-24T00:34:13;40.47;;;25.58;;
57375;SDS011;44805;45.048;5.062;2022-11-24T00:36:39;41.90;;;23.52;;
57375;SDS011;44805;45.048;5.062;2022-11-24T00:39:07;43.75;;;24.02;;
57375;SDS011;44805;45.048;5.062;2022-11-24T00:41:35;37.55;;;22.77;;
57375;SDS011;44805;45.048;5.062;2022-11-24T00:44:04;34.17;;;21.17;;
57375;SDS011;44805;45.048;5.062;2022-11-24T00:46:33;35.35;;;21.60;;
57375;SDS011;44805;45.048;5.062;2022-11-24T00:48:59;29.90;;;18.40;;
57375;SDS011;44805;45.048;5.062;2022-11-24T00:54:47;24.55;;;12.85;;
57375;SDS011;44805;45.048;5.062;2022-11-24T00:57:12;22.73;;;13.00;;
57375;SDS011;44805;45.048;5.062;2022-11-24T00:59:38;17.55;;;10.07;;
57375;SDS011;44805;45.048;5.062;2022-11-24T01:02:06;19.52;;;10.25;;
57375;SDS011;44805;45.048;5.062;2022-11-24T01:04:31;17.10;;;8.88;;
57375;SDS011;44805;45.048;5.062;2022-11-24T01:10:18;16.98;;;7.32;;
57375;SDS011;44805;45.048;5.062;2022-11-24T01:12:44;13.73;;;7.45;;
57375;SDS011;44805;45.048;5.062;2022-11-24T01:15:12;14.93;;;7.45;;
57375;SDS011;44805;45.048;5.062;2022-11-24T01:17:37;11.23;;;6.75;;
57375;SDS011;44805;45.048;5.062;2022-11-24T01:20:08;16.33;;;7.32;;
57375;SDS011;44805;45.048;5.062;2022-11-24T01:22:34;16.00;;;7.53;;
57375;SDS011;44805;45.048;5.062;2022-11-24T01:24:59;15.90;;;7.50;;
57375;SDS011;44805;45.048;5.062;2022-11-24T01:27:25;11.77;;;6.15;;
57375;SDS011;44805;45.048;5.062;2022-11-24T01:29:50;14.70;;;5.75;;
57375;SDS011;44805;45.048;5.062;2022-11-24T01:32:16;10.43;;;5.90;;
57375;SDS011;44805;45.048;5.062;2022-11-24T01:34:41;12.02;;;6.32;;
57375;SDS011;44805;45.048;5.062;2022-11-24T01:40:29;12.13;;;5.93;;
57375;SDS011;44805;45.048;5.062;2022-11-24T01:42:54;11.95;;;5.60;;
57375;SDS011;44805;45.048;5.062;2022-11-24T01:45:29;18.13;;;6.80;;
57375;SDS011;44805;45.048;5.062;2022-11-24T01:48:01;11.63;;;5.78;;
57375;SDS011;44805;45.048;5.062;2022-11-24T01:50:29;11.38;;;5.85;;
57375;SDS011;44805;45.048;5.062;2022-11-24T01:52:56;13.52;;;6.68;;
57375;SDS011;44805;45.048;5.062;2022-11-24T01:55:26;18.65;;;7.40;;
57375;SDS011;44805;45.048;5.062;2022-11-24T01:57:58;15.43;;;7.22;;
57375;SDS011;44805;45.048;5.062;2022-11-24T02:00:44;23.17;;;7.45;;
57375;SDS011;44805;45.048;5.062;2022-11-24T02:03:14;19.92;;;7.95;;
57375;SDS011;44805;45.048;5.062;2022-11-24T02:05:43;16.10;;;7.32;;
57375;SDS011;44805;45.048;5.062;2022-11-24T02:08:12;19.88;;;8.07;;
57375;SDS011;44805;45.048;5.062;2022-11-24T02:10:50;14.57;;;7.47;;
57375;SDS011;44805;45.048;5.062;2022-11-24T02:13:18;16.33;;;8.10;;
57375;SDS011;44805;45.048;5.062;2022-11-24T02:15:43;18.02;;;7.53;;
57375;SDS011;44805;45.048;5.062;2022-11-24T02:18:09;12.43;;;6.55;;
57375;SDS011;44805;45.048;5.062;2022-11-24T02:27:11;17.63;;;7.95;;
57375;SDS011;44805;45.048;5.062;2022-11-24T02:29:40;18.90;;;7.80;;
57375;SDS011;44805;45.048;5.062;2022-11-24T02:32:06;18.20;;;8.53;;
57375;SDS011;44805;45.048;5.062;2022-11-24T02:34:34;18.85;;;8.43;;
57375;SDS011;44805;45.048;5.062;2022-11-24T02:40:17;14.80;;;7.40;;
57375;SDS011;44805;45.048;5.062;2022-11-24T02:42:50;18.55;;;8.57;;
57375;SDS011;44805;45.048;5.062;2022-11-24T02:47:45;14.18;;;7.38;;
57375;SDS011;44805;45.048;5.062;2022-11-24T02:50:11;15.70;;;6.88;;
57375;SDS011;44805;45.048;5.062;2022-11-24T02:55:45;19.75;;;7.95;;
57375;SDS011;44805;45.048;5.062;2022-11-24T02:58:10;15.27;;;7.05;;
57375;SDS011;44805;45.048;5.062;2022-11-24T03:00:36;16.50;;;7.40;;
57375;SDS011;44805;45.048;5.062;2022-11-24T03:03:02;16.00;;;7.78;;
57375;SDS011;44805;45.048;5.062;2022-11-24T03:12:11;17.75;;;7.40;;
57375;SDS011;44805;45.048;5.062;2022-11-24T03:14:39;18.50;;;8.82;;
57375;SDS011;44805;45.048;5.062;2022-11-24T03:17:05;19.67;;;7.43;;
57375;SDS011;44805;45.048;5.062;2022-11-24T03:19:31;21.02;;;7.63;;
57375;SDS011;44805;45.048;5.062;2022-11-24T03:25:18;13.65;;;5.50;;
57375;SDS011;44805;45.048;5.062;2022-11-24T03:27:44;13.75;;;6.00;;
57375;SDS011;44805;45.048;5.062;2022-11-24T03:30:10;13.73;;;5.10;;
57375;SDS011;44805;45.048;5.062;2022-11-24T03:32:36;10.73;;;5.03;;
57375;SDS011;44805;45.048;5.062;2022-11-24T03:35:03;11.75;;;5.82;;
57375;SDS011;44805;45.048;5.062;2022-11-24T03:37:30;13.15;;;5.75;;
57375;SDS011;44805;45.048;5.062;2022-11-24T03:39:56;15.13;;;5.65;;
57375;SDS011;44805;45.048;5.062;2022-11-24T03:42:23;12.00;;;4.43;;
57375;SDS011;44805;45.048;5.062;2022-11-24T03:44:49;13.65;;;5.60;;
57375;SDS011;44805;45.048;5.062;2022-11-24T03:47:15;17.10;;;5.40;;
57375;SDS011;44805;45.048;5.062;2022-11-24T03:49:47;15.95;;;6.07;;
57375;SDS011;44805;45.048;5.062;2022-11-24T03:52:21;16.00;;;5.82;;
57375;SDS011;44805;45.048;5.062;2022-11-24T03:54:50;17.08;;;6.03;;
57375;SDS011;44805;45.048;5.062;2022-11-24T03:57:19;16.75;;;6.32;;
57375;SDS011;44805;45.048;5.062;2022-11-24T03:59:44;15.02;;;5.43;;
57375;SDS011;44805;45.048;5.062;2022-11-24T04:02:10;15.32;;;5.95;;
57375;SDS011;44805;45.048;5.062;2022-11-24T04:04:35;14.27;;;5.70;;
57375;SDS011;44805;45.048;5.062;2022-11-24T04:07:16;13.90;;;5.32;;
57375;SDS011;44805;45.048;5.062;2022-11-24T04:09:43;19.23;;;6.15;;
57375;SDS011;44805;45.048;5.062;2022-11-24T04:12:09;17.80;;;5.97;;
57375;SDS011;44805;45.048;5.062;2022-11-24T04:14:56;16.02;;;5.72;;
57375;SDS011;44805;45.048;5.062;2022-11-24T04:17:23;16.88;;;6.07;;
57375;SDS011;44805;45.048;5.062;2022-11-24T04:19:49;16.23;;;6.10;;
57375;SDS011;44805;45.048;5.062;2022-11-24T04:22:27;19.73;;;6.63;;
57375;SDS011;44805;45.048;5.062;2022-11-24T04:24:52;13.73;;;5.68;;
57375;SDS011;44805;45.048;5.062;2022-11-24T04:27:18;17.73;;;6.43;;
57375;SDS011;44805;45.048;5.062;2022-11-24T04:29:43;11.63;;;5.28;;
57375;SDS011;44805;45.048;5.062;2022-11-24T04:32:11;15.32;;;5.25;;
57375;SDS011;44805;45.048;5.062;2022-11-24T04:34:40;20.48;;;5.78;;
57375;SDS011;44805;45.048;5.062;2022-11-24T05:26:51;14.20;;;5.85;;
57375;SDS011;44805;45.048;5.062;2022-11-24T05:29:22;13.52;;;6.03;;
57375;SDS011;44805;45.048;5.062;2022-11-24T05:31:47;16.77;;;6.07;;
57375;SDS011;44805;45.048;5.062;2022-11-24T05:34:13;17.77;;;5.85;;
57375;SDS011;44805;45.048;5.062;2022-11-24T05:36:39;13.70;;;5.82;;
57375;SDS011;44805;45.048;5.062;2022-11-24T05:39:17;19.83;;;7.28;;
57375;SDS011;44805;45.048;5.062;2022-11-24T05:41:43;17.75;;;6.13;;
57375;SDS011;44805;45.048;5.062;2022-11-24T05:44:09;14.73;;;6.60;;
57375;SDS011;44805;45.048;5.062;2022-11-24T05:46:35;14.85;;;5.93;;
57375;SDS011;44805;45.048;5.062;2022-11-24T05:49:06;18.23;;;7.25;;
57375;SDS011;44805;45.048;5.062;2022-11-24T05:51:34;18.58;;;6.63;;
57375;SDS011;44805;45.048;5.062;2022-11-24T05:56:59;19.52;;;7.68;;
57375;SDS011;44805;45.048;5.062;2022-11-24T05:59:25;18.90;;;7.28;;
57375;SDS011;44805;45.048;5.062;2022-11-24T06:01:53;14.30;;;6.45;;
57375;SDS011;44805;45.048;5.062;2022-11-24T06:04:18;12.75;;;5.93;;
57375;SDS011;44805;45.048;5.062;2022-11-24T06:06:45;16.00;;;6.43;;
57375;SDS011;44805;45.048;5.062;2022-11-24T06:09:17;15.05;;;5.97;;
57375;SDS011;44805;45.048;5.062;2022-11-24T06:11:42;12.35;;;6.03;;
57375;SDS011;44805;45.048;5.062;2022-11-24T06:14:08;13.77;;;5.97;;
57375;SDS011;44805;45.048;5.062;2022-11-24T06:16:34;13.35;;;5.50;;
57375;SDS011;44805;45.048;5.062;2022-11-24T06:19:00;12.45;;;5.90;;
57375;SDS011;44805;45.048;5.062;2022-11-24T06:21:26;18.23;;;6.55;;
57375;SDS011;44805;45.048;5.062;2022-11-24T06:26:54;13.93;;;6.10;;
57375;SDS011;44805;45.048;5.062;2022-11-24T06:29:20;14.77;;;6.65;;
57375;SDS011;44805;45.048;5.062;2022-11-24T06:31:48;15.40;;;5.70;;
57375;SDS011;44805;45.048;5.062;2022-11-24T06:34:14;16.17;;;6.38;;
57375;SDS011;44805;45.048;5.062;2022-11-24T06:36:39;16.13;;;6.50;;
57375;SDS011;44805;45.048;5.062;2022-11-24T06:42:06;15.50;;;5.97;;
57375;SDS011;44805;45.048;5.062;2022-11-24T06:47:44;15.50;;;6.90;;
57375;SDS011;44805;45.048;5.062;2022-11-24T06:50:14;15.65;;;7.13;;
57375;SDS011;44805;45.048;5.062;2022-11-24T06:56:26;22.55;;;6.65;;
57375;SDS011;44805;45.048;5.062;2022-11-24T07:18:17;17.30;;;6.72;;
57375;SDS011;44805;45.048;5.062;2022-11-24T07:20:44;20.08;;;7.10;;
57375;SDS011;44805;45.048;5.062;2022-11-24T07:23:14;22.05;;;7.28;;
57375;SDS011;44805;45.048;5.062;2022-11-24T07:25:47;20.17;;;6.55;;
57375;SDS011;44805;45.048;5.062;2022-11-24T07:28:36;17.95;;;7.20;;
57375;SDS011;44805;45.048;5.062;2022-11-24T07:31:11;17.70;;;7.60;;
57375;SDS011;44805;45.048;5.062;2022-11-24T07:36:24;17.65;;;6.82;;
57375;SDS011;44805;45.048;5.062;2022-11-24T07:39:05;28.55;;;7.20;;
57375;SDS011;44805;45.048;5.062;2022-11-24T07:41:40;15.85;;;6.30;;
57375;SDS011;44805;45.048;5.062;2022-11-24T07:44:32;19.23;;;6.80;;
57375;SDS011;44805;45.048;5.062;2022-11-24T07:47:00;24.38;;;6.25;;
57375;SDS011;44805;45.048;5.062;2022-11-24T07:49:25;22.52;;;5.20;;
57375;SDS011;44805;45.048;5.062;2022-11-24T07:51:55;19.25;;;6.18;;
57375;SDS011;44805;45.048;5.062;2022-11-24T07:54:24;16.40;;;6.20;;
57375;SDS011;44805;45.048;5.062;2022-11-24T07:56:50;22.88;;;7.07;;
57375;SDS011;44805;45.048;5.062;2022-11-24T07:59:18;13.55;;;5.82;;
57375;SDS011;44805;45.048;5.062;2022-11-24T08:01:43;15.02;;;6.10;;
57375;SDS011;44805;45.048;5.062;2022-11-24T08:04:09;15.95;;;5.53;;
57375;SDS011;44805;45.048;5.062;2022-11-24T08:06:37;11.77;;;6.10;;
57375;SDS011;44805;45.048;5.062;2022-11-24T08:15:21;22.92;;;6.57;;
57375;SDS011;44805;45.048;5.062;2022-11-24T08:17:47;24.92;;;6.45;;
57375;SDS011;44805;45.048;5.062;2022-11-24T08:20:15;19.93;;;5.47;;
57375;SDS011;44805;45.048;5.062;2022-11-24T08:22:41;20.90;;;6.57;;
57375;SDS011;44805;45.048;5.062;2022-11-24T08:31:28;15.32;;;5.63;;
57375;SDS011;44805;45.048;5.062;2022-11-24T08:34:03;16.48;;;5.88;;
57375;SDS011;44805;45.048;5.062;2022-11-24T08:36:29;13.73;;;6.60;;
57375;SDS011;44805;45.048;5.062;2022-11-24T08:38:56;13.15;;;6.68;;
57375;SDS011;44805;45.048;5.062;2022-11-24T08:41:23;12.38;;;5.18;;
57375;SDS011;44805;45.048;5.062;2022-11-24T08:44:08;18.25;;;5.60;;
57375;SDS011;44805;45.048;5.062;2022-11-24T08:46:52;16.60;;;6.00;;
57375;SDS011;44805;45.048;5.062;2022-11-24T08:49:30;12.25;;;5.50;;
57375;SDS011;44805;45.048;5.062;2022-11-24T08:52:32;9.88;;;5.00;;
57375;SDS011;44805;45.048;5.062;2022-11-24T08:58:20;14.35;;;5.13;;
57375;SDS011;44805;45.048;5.062;2022-11-24T09:00:48;12.70;;;5.45;;
57375;SDS011;44805;45.048;5.062;2022-11-24T09:03:13;11.70;;;4.97;;
57375;SDS011;44805;45.048;5.062;2022-11-24T09:05:39;11.98;;;5.28;;
57375;SDS011;44805;45.048;5.062;2022-11-24T09:08:10;14.15;;;5.68;;
57375;SDS011;44805;45.048;5.062;2022-11-24T09:14:14;15.30;;;6.43;;
57375;SDS011;44805;45.048;5.062;2022-11-24T09:16:52;15.45;;;6.05;;
57375;SDS011;44805;45.048;5.062;2022-11-24T09:19:25;19.30;;;6.07;;
57375;SDS011;44805;45.048;5.062;2022-11-24T09:22:02;16.67;;;5.85;;
57375;SDS011;44805;45.048;5.062;2022-11-24T09:24:49;11.98;;;5.13;;
57375;SDS011;44805;45.048;5.062;2022-11-24T09:27:15;16.67;;;5.43;;
57375;SDS011;44805;45.048;5.062;2022-11-24T09:32:48;11.82;;;4.68;;
57375;SDS011;44805;45.048;5.062;2022-11-24T09:35:22;15.38;;;5.13;;
57375;SDS011;44805;45.048;5.062;2022-11-24T09:37:57;13.15;;;5.68;;
57375;SDS011;44805;45.048;5.062;2022-11-24T09:44:03;16.77;;;5.93;;
57375;SDS011;44805;45.048;5.062;2022-11-24T09:49:54;17.00;;;6.30;;
57375;SDS011;44805;45.048;5.062;2022-11-24T09:55:43;18.45;;;6.70;;
57375;SDS011;44805;45.048;5.062;2022-11-24T10:06:47;14.07;;;5.93;;
57375;SDS011;44805;45.048;5.062;2022-11-24T10:09:26;14.18;;;6.25;;
57375;SDS011;44805;45.048;5.062;2022-11-24T10:26:55;15.50;;;5.57;;
57375;SDS011;44805;45.048;5.062;2022-11-24T10:29:49;14.90;;;5.35;;
57375;SDS011;44805;45.048;5.062;2022-11-24T10:34:50;13.63;;;6.55;;
57375;SDS011;44805;45.048;5.062;2022-11-24T10:37:18;15.77;;;6.85;;
57375;SDS011;44805;45.048;5.062;2022-11-24T10:42:32;13.88;;;7.05;;
57375;SDS011;44805;45.048;5.062;2022-11-24T10:45:01;16.45;;;6.75;;
57375;SDS011;44805;45.048;5.062;2022-11-24T10:47:35;17.40;;;6.97;;
57375;SDS011;44805;45.048;5.062;2022-11-24T10:50:02;16.48;;;7.65;;
57375;SDS011;44805;45.048;5.062;2022-11-24T10:52:40;17.60;;;7.18;;
57375;SDS011;44805;45.048;5.062;2022-11-24T10:55:14;18.95;;;8.95;;
57375;SDS011;44805;45.048;5.062;2022-11-24T10:57:40;19.20;;;8.82;;
57375;SDS011;44805;45.048;5.062;2022-11-24T11:00:28;20.20;;;8.25;;
57375;SDS011;44805;45.048;5.062;2022-11-24T11:03:10;20.58;;;8.80;;
57375;SDS011;44805;45.048;5.062;2022-11-24T11:05:40;19.77;;;9.27;;
57375;SDS011;44805;45.048;5.062;2022-11-24T11:15:48;20.45;;;8.48;;
57375;SDS011;44805;45.048;5.062;2022-11-24T11:18:15;20.20;;;9.32;;
57375;SDS011;44805;45.048;5.062;2022-11-24T11:20:49;22.27;;;9.88;;
57375;SDS011;44805;45.048;5.062;2022-11-24T11:23:26;23.75;;;11.15;;
57375;SDS011;44805;45.048;5.062;2022-11-24T11:29:02;18.33;;;8.88;;
57375;SDS011;44805;45.048;5.062;2022-11-24T11:31:31;20.60;;;9.32;;
57375;SDS011;44805;45.048;5.062;2022-11-24T11:34:01;20.17;;;8.50;;
57375;SDS011;44805;45.048;5.062;2022-11-24T11:36:29;19.35;;;9.05;;
57375;SDS011;44805;45.048;5.062;2022-11-24T11:38:56;17.88;;;8.48;;
57375;SDS011;44805;45.048;5.062;2022-11-24T11:41:28;17.75;;;8.57;;
57375;SDS011;44805;45.048;5.062;2022-11-24T11:47:34;19.60;;;8.90;;
57375;SDS011;44805;45.048;5.062;2022-11-24T11:50:15;22.42;;;9.32;;
57375;SDS011;44805;45.048;5.062;2022-11-24T11:55:44;17.23;;;8.10;;
57375;SDS011;44805;45.048;5.062;2022-11-24T12:26:33;12.13;;;5.22;;
57375;SDS011;44805;45.048;5.062;2022-11-24T12:37:03;12.20;;;4.70;;
57375;SDS011;44805;45.048;5.062;2022-11-24T12:39:37;17.08;;;6.13;;
57375;SDS011;44805;45.048;5.062;2022-11-24T12:45:21;10.52;;;4.13;;
57375;SDS011;44805;45.048;5.062;2022-11-24T12:50:29;9.68;;;3.55;;
57375;SDS011;44805;45.048;5.062;2022-11-24T12:53:03;8.75;;;2.95;;
57375;SDS011;44805;45.048;5.062;2022-11-24T12:56:03;7.97;;;2.40;;
57375;SDS011;44805;45.048;5.062;2022-11-24T12:58:35;7.80;;;2.70;;
57375;SDS011;44805;45.048;5.062;2022-11-24T13:04:38;7.97;;;3.15;;
57375;SDS011;44805;45.048;5.062;2022-11-24T13:07:12;5.90;;;2.17;;
57375;SDS011;44805;45.048;5.062;2022-11-24T13:16:20;8.63;;;2.85;;
57375;SDS011;44805;45.048;5.062;2022-11-24T13:26:44;7.03;;;2.10;;
57375;SDS011;44805;45.048;5.062;2022-11-24T13:29:30;13.93;;;3.15;;
57375;SDS011;44805;45.048;5.062;2022-11-24T13:42:17;9.20;;;2.80;;
57375;SDS011;44805;45.048;5.062;2022-11-24T13:44:44;7.78;;;2.25;;
57375;SDS011;44805;45.048;5.062;2022-11-24T13:50:08;9.98;;;1.70;;
57375;SDS011;44805;45.048;5.062;2022-11-24T13:55:40;7.35;;;1.88;;
57375;SDS011;44805;45.048;5.062;2022-11-24T13:58:29;8.77;;;2.17;;
57375;SDS011;44805;45.048;5.062;2022-11-24T14:06:56;7.90;;;2.10;;
57375;SDS011;44805;45.048;5.062;2022-11-24T14:41:12;8.52;;;2.42;;
57375;SDS011;44805;45.048;5.062;2022-11-24T14:46:36;11.00;;;3.45;;
57375;SDS011;44805;45.048;5.062;2022-11-24T14:49:02;9.80;;;2.95;;
57375;SDS011;44805;45.048;5.062;2022-11-24T14:51:29;9.82;;;3.38;;
57375;SDS011;44805;45.048;5.062;2022-11-24T14:54:12;10.02;;;3.50;;
57375;SDS011;44805;45.048;5.062;2022-11-24T15:02:55;12.85;;;4.22;;
57375;SDS011;44805;45.048;5.062;2022-11-24T15:05:56;13.38;;;4.60;;
57375;SDS011;44805;45.048;5.062;2022-11-24T15:15:04;12.25;;;4.53;;
57375;SDS011;44805;45.048;5.062;2022-11-24T15:17:55;13.38;;;5.10;;
57375;SDS011;44805;45.048;5.062;2022-11-24T15:29:07;14.02;;;5.60;;
57375;SDS011;44805;45.048;5.062;2022-11-24T15:34:05;13.65;;;5.07;;
57375;SDS011;44805;45.048;5.062;2022-11-24T15:36:31;11.82;;;5.25;;
57375;SDS011;44805;45.048;5.062;2022-11-24T15:38:57;15.20;;;6.00;;
57375;SDS011;44805;45.048;5.062;2022-11-24T15:44:41;15.00;;;5.45;;
57375;SDS011;44805;45.048;5.062;2022-11-24T15:49:55;11.68;;;5.45;;
57375;SDS011;44805;45.048;5.062;2022-11-24T15:52:21;14.00;;;6.75;;
57375;SDS011;44805;45.048;5.062;2022-11-24T15:54:51;12.63;;;6.22;;
57375;SDS011;44805;45.048;5.062;2022-11-24T16:16:02;15.65;;;6.40;;
57375;SDS011;44805;45.048;5.062;2022-11-24T16:18:27;14.20;;;7.70;;
57375;SDS011;44805;45.048;5.062;2022-11-24T16:20:56;14.23;;;6.82;;
57375;SDS011;44805;45.048;5.062;2022-11-24T16:23:43;13.90;;;6.90;;
57375;SDS011;44805;45.048;5.062;2022-11-24T16:26:13;17.83;;;7.47;;
57375;SDS011;44805;45.048;5.062;2022-11-24T16:28:41;14.77;;;6.88;;
57375;SDS011;44805;45.048;5.062;2022-11-24T16:31:14;15.68;;;7.22;;
57375;SDS011;44805;45.048;5.062;2022-11-24T16:33:51;13.23;;;7.72;;
57375;SDS011;44805;45.048;5.062;2022-11-24T16:36:17;19.42;;;8.60;;
57375;SDS011;44805;45.048;5.062;2022-11-24T16:38:50;21.65;;;8.80;;
57375;SDS011;44805;45.048;5.062;2022-11-24T16:41:19;16.25;;;9.18;;
57375;SDS011;44805;45.048;5.062;2022-11-24T16:43:49;19.08;;;9.90;;
57375;SDS011;44805;45.048;5.062;2022-11-24T16:46:23;23.58;;;11.68;;
57375;SDS011;44805;45.048;5.062;2022-11-24T16:48:56;19.85;;;12.68;;
57375;SDS011;44805;45.048;5.062;2022-11-24T16:51:27;23.92;;;13.10;;
57375;SDS011;44805;45.048;5.062;2022-11-24T16:53:57;25.15;;;14.25;;
57375;SDS011;44805;45.048;5.062;2022-11-24T16:56:27;24.92;;;13.82;;
57375;SDS011;44805;45.048;5.062;2022-11-24T17:01:28;21.98;;;11.85;;
57375;SDS011;44805;45.048;5.062;2022-11-24T17:03:54;19.63;;;12.07;;
57375;SDS011;44805;45.048;5.062;2022-11-24T17:06:25;24.92;;;13.18;;
57375;SDS011;44805;45.048;5.062;2022-11-24T17:08:58;25.02;;;13.15;;
57375;SDS011;44805;45.048;5.062;2022-11-24T17:11:24;18.75;;;12.10;;
57375;SDS011;44805;45.048;5.062;2022-11-24T17:13:55;26.35;;;11.80;;
57375;SDS011;44805;45.048;5.062;2022-11-24T17:16:24;16.48;;;9.35;;
57375;SDS011;44805;45.048;5.062;2022-11-24T17:18:53;19.27;;;9.40;;
57375;SDS011;44805;45.048;5.062;2022-11-24T17:21:22;18.25;;;8.85;;
57375;SDS011;44805;45.048;5.062;2022-11-24T17:23:58;18.67;;;9.05;;
57375;SDS011;44805;45.048;5.062;2022-11-24T17:26:31;22.40;;;9.35;;
57375;SDS011;44805;45.048;5.062;2022-11-24T17:28:57;26.25;;;14.40;;
57375;SDS011;44805;45.048;5.062;2022-11-24T17:31:24;25.63;;;12.63;;
57375;SDS011;44805;45.048;5.062;2022-11-24T17:33:51;25.80;;;12.45;;
57375;SDS011;44805;45.048;5.062;2022-11-24T17:36:17;27.33;;;15.15;;
57375;SDS011;44805;45.048;5.062;2022-11-24T17:38:43;27.67;;;14.25;;
57375;SDS011;44805;45.048;5.062;2022-11-24T17:41:09;28.38;;;12.60;;
57375;SDS011;44805;45.048;5.062;2022-11-24T17:43:35;23.10;;;11.88;;
57375;SDS011;44805;45.048;5.062;2022-11-24T17:46:01;23.90;;;10.88;;
57375;SDS011;44805;45.048;5.062;2022-11-24T17:48:28;19.33;;;9.32;;
57375;SDS011;44805;45.048;5.062;2022-11-24T17:51:05;19.65;;;9.63;;
57375;SDS011;44805;45.048;5.062;2022-11-24T17:53:33;20.13;;;9.70;;
57375;SDS011;44805;45.048;5.062;2022-11-24T17:56:06;24.77;;;10.05;;
57375;SDS011;44805;45.048;5.062;2022-11-24T17:58:35;21.17;;;9.88;;
57375;SDS011;44805;45.048;5.062;2022-11-24T18:01:03;21.63;;;10.82;;
57375;SDS011;44805;45.048;5.062;2022-11-24T18:03:32;21.83;;;11.67;;
57375;SDS011;44805;45.048;5.062;2022-11-24T18:06:05;20.83;;;10.30;;
57375;SDS011;44805;45.048;5.062;2022-11-24T18:08:32;20.50;;;10.82;;
57375;SDS011;44805;45.048;5.062;2022-11-24T18:13:54;18.45;;;10.38;;
57375;SDS011;44805;45.048;5.062;2022-11-24T18:16:21;16.38;;;10.07;;
57375;SDS011;44805;45.048;5.062;2022-11-24T22:15:58;21.67;;;9.90;;
57375;SDS011;44805;45.048;5.062;2022-11-24T22:18:28;20.38;;;9.90;;
57375;SDS011;44805;45.048;5.062;2022-11-24T22:20:54;17.48;;;8.75;;
57375;SDS011;44805;45.048;5.062;2022-11-24T22:23:20;15.23;;;9.88;;
57375;SDS011;44805;45.048;5.062;2022-11-24T22:25:46;17.02;;;9.38;;
57375;SDS011;44805;45.048;5.062;2022-11-24T22:34:27;17.48;;;9.38;;
57375;SDS011;44805;45.048;5.062;2022-11-24T22:36:53;19.90;;;9.70;;
57375;SDS011;44805;45.048;5.062;2022-11-24T22:39:18;19.88;;;9.00;;
57375;SDS011;44805;45.048;5.062;2022-11-24T22:44:31;18.60;;;9.63;;
57375;SDS011;44805;45.048;5.062;2022-11-24T22:46:57;20.63;;;9.93;;
57375;SDS011;44805;45.048;5.062;2022-11-24T22:49:24;18.08;;;8.88;;
57375;SDS011;44805;45.048;5.062;2022-11-24T22:51:49;15.95;;;8.23;;
57375;SDS011;44805;45.048;5.062;2022-11-24T22:54:15;16.67;;;8.88;;
57375;SDS011;44805;45.048;5.062;2022-11-24T22:56:40;15.25;;;9.35;;
57375;SDS011;44805;45.048;5.062;2022-11-24T22:59:06;16.85;;;9.50;;
57375;SDS011;44805;45.048;5.062;2022-11-24T23:01:31;19.88;;;8.93;;
57375;SDS011;44805;45.048;5.062;2022-11-24T23:03:57;17.73;;;9.43;;
57375;SDS011;44805;45.048;5.062;2022-11-24T23:06:27;17.50;;;9.13;;
57375;SDS011;44805;45.048;5.062;2022-11-24T23:08:55;17.10;;;9.02;;
57375;SDS011;44805;45.048;5.062;2022-11-24T23:11:28;18.15;;;8.75;;
57375;SDS011;44805;45.048;5.062;2022-11-24T23:13:57;17.83;;;8.77;;
57375;SDS011;44805;45.048;5.062;2022-11-24T23:16:26;17.35;;;8.48;;
57375;SDS011;44805;45.048;5.062;2022-11-24T23:18:55;16.67;;;8.40;;
57375;SDS011;44805;45.048;5.062;2022-11-24T23:21:22;16.85;;;8.27;;
57375;SDS011;44805;45.048;5.062;2022-11-24T23:23:49;17.98;;;9.25;;
57375;SDS011;44805;45.048;5.062;2022-11-24T23:26:17;17.42;;;7.72;;
57375;SDS011;44805;45.048;5.062;2022-11-24T23:28:50;15.18;;;8.05;;
57375;SDS011;44805;45.048;5.062;2022-11-24T23:31:17;16.52;;;8.80;;
57375;SDS011;44805;45.048;5.062;2022-11-24T23:33:44;13.60;;;7.47;;
57375;SDS011;44805;45.048;5.062;2022-11-24T23:36:11;18.63;;;8.48;;
57375;SDS011;44805;45.048;5.062;2022-11-24T23:38:38;13.23;;;7.35;;
57375;SDS011;44805;45.048;5.062;2022-11-24T23:41:05;17.55;;;8.80;;
57375;SDS011;44805;45.048;5.062;2022-11-24T23:46:04;18.45;;;8.68;;
57375;SDS011;44805;45.048;5.062;2022-11-24T23:48:34;15.77;;;8.88;;
57375;SDS011;44805;45.048;5.062;2022-11-24T23:53:34;16.73;;;8.57;;
57375;SDS011;44805;45.048;5.062;2022-11-24T23:56:00;18.48;;;8.98;;
57375;SDS011;44805;45.048;5.062;2022-11-24T23:58:25;17.67;;;8.52;;
